DW1221 Weather Reports


Display with metric or nautical units.
time (UTC)temp
F
wind
direction
speed
MPH
gust
MPH
rain 1hr
in
rain 24hr
in
rain mn
in
humidity
%
barometer
mb
20221208050604 63 270 2.0 8.0 0.00 0.11 0.00 97 1021.3
20221208050105 63 248 3.0 7.0 0.00 0.11 0.00 97 1021.4
20221208050048 62 247 2.0 6.0 0.00 0.10 0.00 93 1020.7
20221208044545 63 267 1.0 6.0 0.00 0.10 0.10 93 1020.9
20221208043044 63 276 1.0 5.0 0.00 0.10 0.10 93 1021.1
20221208041545 63 199 1.0 6.0 0.00 0.10 0.10 93 1021.0
20221208040606 63 215 3.0 7.0 0.00 0.11 0.11 97 1021.8
20221208040104 64 265 4.0 9.0 0.00 0.11 0.11 97 1022.1
20221208040044 63 246 2.0 8.0 0.00 0.10 0.10 93 1021.4
20221208034547 63 216 1.0 4.0 0.00 0.10 0.10 93 1021.7
20221208033046 63 276 1.0 6.0 0.00 0.10 0.10 93 1021.8
20221208031543 63 320 1.0 6.0 0.00 0.10 0.10 93 1022.0
20221208030104 64 321 2.0 5.0 0.00 0.11 0.11 97 1022.6
20221208030046 63 321 1.0 3.0 0.00 0.10 0.10 93 1022.0
20221208024544 63 306 1.0 3.0 0.00 0.10 0.10 93 1021.9
20221208023106 63 269 1.0 2.0 0.00 0.10 0.10 93 1022.1
20221208021557 63 306 1.0 4.0 0.00 0.10 0.10 93 1022.0
20221208020604 63 256 1.0 2.0 0.00 0.11 0.11 97 1022.5
20221208020106 63 234 2.0 8.0 0.00 0.11 0.11 97 1022.4
20221208020048 63 238 1.0 4.0 0.00 0.10 0.10 92 1021.8
20221208014542 63 0 0.0 4.0 0.00 0.10 0.10 93 1021.5
20221208013044 64 241 2.0 6.0 0.00 0.10 0.10 92 1021.5
20221208011542 64 248 1.0 7.0 0.00 0.10 0.10 93 1021.6
20221208010105 64 229 4.0 10.0 0.00 0.11 0.11 97 1022.3
20221208010045 64 218 3.0 8.0 0.00 0.10 0.10 93 1021.7
20221208004548 64 234 2.0 9.0 0.00 0.10 0.10 92 1022.0
20221208003044 64 0 1.0 5.0 0.00 0.10 0.10 92 1022.0
20221208001547 64 0 0.0 2.0 0.01 0.10 0.10 92 1022.2
20221208000605 64 245 2.0 5.0 0.01 0.11 0.11 96 1022.8
20221208000104 64 232 2.0 7.0 0.01 0.11 0.11 97 1022.7
20221208000041 64 234 1.0 6.0 0.01 0.10 0.10 92 1022.0
20221207234541 64 219 3.0 6.0 0.01 0.10 0.10 92 1021.8
20221207233050 64 184 2.0 4.0 0.01 0.10 0.10 92 1022.0
20221207231547 64 303 1.0 5.0 0.01 0.09 0.09 92 1022.3
20221207230105 65 208 3.0 5.0 0.01 0.10 0.10 96 1022.7
20221207230044 64 207 1.0 4.0 0.01 0.09 0.09 92 1022.1
20221207224545 64 0 0.0 4.0 0.01 0.09 0.09 92 1022.3
20221207223042 65 250 1.0 4.0 0.01 0.09 0.09 92 1022.0
20221207221552 65 236 0.0 2.0 0.00 0.08 0.08 91 1022.3
20221207220606 65 223 0.0 1.0 0.00 0.09 0.09 96 1022.8
20221207220106 65 223 0.0 5.0 0.00 0.09 0.09 96 1022.7
20221207220049 65 0 0.0 2.0 0.00 0.08 0.08 91 1022.2
20221207214546 65 219 0.0 2.0 0.00 0.08 0.08 91 1022.0
20221207213045 65 229 1.0 4.0 0.00 0.08 0.08 91 1022.1
20221207211537 65 207 1.0 4.0 0.00 0.08 0.08 91 1022.0
20221207210605 66 211 5.0 5.0 0.01 0.09 0.09 95 1022.6
20221207210105 66 208 5.0 9.0 0.01 0.09 0.09 95 1022.5
20221207210058 66 212 3.0 5.0 0.01 0.08 0.08 91 1022.0
20221207204545 66 227 2.0 7.0 0.02 0.08 0.08 91 1021.9
20221207203045 66 206 3.0 8.0 0.03 0.08 0.08 91 1021.8
20221207201540 66 190 2.0 5.0 0.04 0.08 0.08 90 1021.7
20221207200605 67 193 3.0 5.0 0.06 0.08 0.08 95 1022.5
20221207200106 67 212 3.0 6.0 0.07 0.08 0.08 94 1022.7
20221207200050 67 205 2.0 5.0 0.06 0.07 0.07 90 1022.0
20221207194550 67 232 0.0 3.0 0.05 0.06 0.06 89 1022.1
20221207193049 67 213 1.0 3.0 0.04 0.05 0.05 89 1022.1
20221207191540 67 224 1.0 4.0 0.02 0.03 0.03 88 1022.2
20221207190105 68 236 4.0 9.0 0.00 0.01 0.01 93 1023.2
20221207190048 67 227 2.0 8.0 0.00 0.01 0.01 87 1022.7
20221207184540 68 0 1.0 5.0 0.00 0.01 0.01 87 1022.7
20221207183045 68 204 2.0 5.0 0.00 0.01 0.01 87 1022.7
20221207181545 68 213 2.0 4.0 0.01 0.01 0.01 88 1022.5
20221207180606 68 232 0.0 2.0 0.01 0.01 0.01 93 1023.4
20221207180105 68 229 2.0 10.0 0.01 0.01 0.01 93 1023.5
20221207180041 68 229 1.0 4.0 0.01 0.01 0.01 88 1022.8
20221207174550 68 251 1.0 4.0 0.01 0.01 0.01 86 1022.9
20221207173037 69 219 2.0 9.0 0.01 0.01 0.01 84 1023.2
20221207171543 69 254 3.0 8.0 0.00 0.00 0.00 81 1023.5
20221207170605 70 253 3.0 13.0 0.00 0.00 0.00 87 1024.3
20221207170105 70 249 5.0 14.0 0.00 0.00 0.00 86 1024.4
20221207170055 70 261 3.0 12.0 0.00 0.00 0.00 80 1023.6
20221207164538 70 220 4.0 10.0 0.00 0.00 0.00 80 1023.7
20221207163039 70 260 3.0 8.0 0.00 0.00 0.00 80 1023.8
20221207161602 70 310 4.0 10.0 0.00 0.00 0.00 80 1024.1
20221207160605 70 249 6.0 10.0 0.00 0.00 0.00 87 1024.9
20221207160105 70 238 5.0 13.0 0.00 0.00 0.00 87 1025.1
20221207160051 70 232 3.0 9.0 0.00 0.00 0.00 81 1024.4
20221207154546 69 256 5.0 11.0 0.00 0.00 0.00 81 1024.7
20221207153045 68 298 4.0 10.0 0.00 0.00 0.00 83 1024.8
20221207151547 67 218 3.0 8.0 0.00 0.00 0.00 88 1024.7
20221207150606 65 215 6.0 9.0 0.00 0.00 0.00 97 1025.4
20221207150112 65 224 3.0 10.0 0.00 0.00 0.00 93 1024.8
20221207144609 64 247 3.0 7.0 0.00 0.00 0.00 94 1024.9
20221207143058 64 237 1.0 4.0 0.00 0.00 0.00 94 1024.8
20221207141607 64 223 1.0 5.0 0.00 0.00 0.00 94 1024.8
20221207140606 64 227 3.0 6.0 0.00 0.00 0.00 98 1025.6
20221207140105 63 214 4.0 8.0 0.00 0.00 0.00 98 1025.6
20221207140044 63 216 3.0 6.0 0.00 0.00 0.00 94 1024.8
20221207134550 62 202 2.0 7.0 0.00 0.00 0.00 94 1024.7
20221207133047 62 209 2.0 6.0 0.00 0.00 0.00 93 1024.5
20221207131554 62 218 2.0 7.0 0.00 0.00 0.00 93 1024.4
20221207130604 62 202 4.0 7.0 0.00 0.00 0.00 98 1025.2
20221207130051 61 157 3.0 8.0 0.00 0.00 0.00 93 1024.4
20221207124547 61 223 3.0 6.0 0.00 0.00 0.00 93 1024.4
20221207123044 61 238 1.0 5.0 0.00 0.00 0.00 93 1024.3
20221207121555 61 223 1.0 7.0 0.00 0.00 0.00 93 1024.4
20221207120105 61 204 6.0 7.0 0.00 0.00 0.00 97 1024.7
20221207120053 61 181 3.0 6.0 0.00 0.00 0.00 93 1024.1
20221207114546 61 229 1.0 4.0 0.00 0.00 0.00 93 1024.0
20221207113057 61 205 2.0 7.0 0.00 0.00 0.00 93 1023.9
20221207111553 61 219 2.0 5.0 0.00 0.00 0.00 93 1024.0
20221207110606 61 201 2.0 6.0 0.00 0.00 0.00 98 1024.7
20221207110105 61 232 5.0 9.0 0.00 0.00 0.00 98 1024.6
20221207110048 61 229 3.0 8.0 0.00 0.00 0.00 93 1024.0
20221207104546 61 203 3.0 8.0 0.00 0.00 0.00 93 1024.0
20221207103041 61 198 4.0 8.0 0.00 0.00 0.00 93 1024.2
20221207101555 61 224 4.0 7.0 0.00 0.00 0.00 93 1024.1
20221207100605 61 200 2.0 5.0 0.00 0.00 0.00 97 1024.7
20221207100106 61 171 3.0 7.0 0.00 0.00 0.00 97 1024.7
20221207100056 60 169 2.0 6.0 0.00 0.00 0.00 93 1024.1
20221207094550 60 209 3.0 6.0 0.00 0.01 0.00 93 1024.3
20221207093046 60 200 2.0 5.0 0.00 0.01 0.00 93 1024.0
20221207091549 60 241 2.0 5.0 0.00 0.01 0.00 93 1024.2
20221207090605 61 250 2.0 7.0 0.00 0.01 0.00 97 1024.8
20221207090105 61 211 3.0 7.0 0.00 0.01 0.00 97 1024.6
20221207090054 60 211 1.0 4.0 0.00 0.01 0.00 93 1024.0
20221207084542 60 214 2.0 5.0 0.00 0.03 0.00 92 1024.0
20221207083042 60 246 1.0 3.0 0.00 0.03 0.00 92 1024.1
20221207081545 60 213 2.0 4.0 0.00 0.03 0.00 92 1024.0
20221207080605 61 228 2.0 5.0 0.00 0.03 0.00 97 1024.8
20221207080106 61 216 3.0 10.0 0.00 0.03 0.00 97 1024.7
20221207080055 60 223 2.0 5.0 0.00 0.03 0.00 92 1024.1
20221207074544 60 207 2.0 6.0 0.00 0.03 0.00 92 1024.1
20221207073042 60 204 3.0 8.0 0.00 0.03 0.00 92 1024.0
20221207071544 60 193 3.0 6.0 0.00 0.03 0.00 92 1023.8
20221207070604 60 156 3.0 8.0 0.00 0.03 0.00 96 1024.6
20221207070041 60 201 3.0 7.0 0.00 0.03 0.00 92 1024.1
20221207064541 60 186 1.0 6.0 0.00 0.03 0.00 92 1024.2
20221207063039 59 190 1.0 4.0 0.00 0.03 0.00 92 1023.9
20221207061543 59 220 1.0 4.0 0.00 0.03 0.00 92 1024.1
20221207060604 60 167 2.0 5.0 0.00 0.03 0.00 96 1024.7
20221207060108 60 167 3.0 6.0 0.00 0.03 0.00 96 1024.7
20221207060052 60 167 2.0 4.0 0.00 0.03 0.00 92 1024.0
20221207054539 60 155 2.0 4.0 0.00 0.03 0.00 92 1024.1
20221207053046 60 191 1.0 5.0 0.00 0.03 0.00 92 1024.1
20221207051546 60 212 1.0 4.0 0.00 0.03 0.00 92 1024.2